sensor_id;sensor_type;location;lat;lon;timestamp;temperature;humidity
54006;DHT22;39919;38.160;-122.260;2023-08-30T00:02:00;29.90;45.20
54006;DHT22;39919;38.160;-122.260;2023-08-30T00:04:31;29.80;45.70
54006;DHT22;39919;38.160;-122.260;2023-08-30T00:07:00;29.90;45.90
54006;DHT22;39919;38.160;-122.260;2023-08-30T00:09:35;29.80;46.20
54006;DHT22;39919;38.160;-122.260;2023-08-30T00:12:05;29.80;46.20
54006;DHT22;39919;38.160;-122.260;2023-08-30T00:14:34;29.80;46.40
54006;DHT22;39919;38.160;-122.260;2023-08-30T00:17:03;29.70;46.60
54006;DHT22;39919;38.160;-122.260;2023-08-30T00:19:34;29.70;46.80
54006;DHT22;39919;38.160;-122.260;2023-08-30T00:22:03;29.70;46.80
54006;DHT22;39919;38.160;-122.260;2023-08-30T00:24:34;29.70;47.80
54006;DHT22;39919;38.160;-122.260;2023-08-30T00:27:03;29.60;47.40
54006;DHT22;39919;38.160;-122.260;2023-08-30T00:29:33;29.60;47.60
54006;DHT22;39919;38.160;-122.260;2023-08-30T00:32:02;29.60;47.80
54006;DHT22;39919;38.160;-122.260;2023-08-30T00:34:33;29.60;47.90
54006;DHT22;39919;38.160;-122.260;2023-08-30T00:37:02;29.50;48.40
54006;DHT22;39919;38.160;-122.260;2023-08-30T00:39:31;29.50;48.70
54006;DHT22;39919;38.160;-122.260;2023-08-30T00:42:00;29.50;49.40
54006;DHT22;39919;38.160;-122.260;2023-08-30T00:44:32;29.50;49.50
54006;DHT22;39919;38.160;-122.260;2023-08-30T00:47:02;29.40;49.60
54006;DHT22;39919;38.160;-122.260;2023-08-30T00:49:33;29.40;50.70
54006;DHT22;39919;38.160;-122.260;2023-08-30T00:52:05;29.30;50.10
54006;DHT22;39919;38.160;-122.260;2023-08-30T00:54:35;29.30;49.80
54006;DHT22;39919;38.160;-122.260;2023-08-30T00:57:05;29.30;50.00
54006;DHT22;39919;38.160;-122.260;2023-08-30T00:59:35;29.30;49.90
54006;DHT22;39919;38.160;-122.260;2023-08-30T01:02:07;29.20;50.10
54006;DHT22;39919;38.160;-122.260;2023-08-30T01:04:38;29.20;50.80
54006;DHT22;39919;38.160;-122.260;2023-08-30T01:07:07;29.10;50.70
54006;DHT22;39919;38.160;-122.260;2023-08-30T01:09:36;29.10;51.10
54006;DHT22;39919;38.160;-122.260;2023-08-30T01:12:12;29.10;51.20
54006;DHT22;39919;38.160;-122.260;2023-08-30T01:14:45;29.10;51.40
54006;DHT22;39919;38.160;-122.260;2023-08-30T01:17:17;29.00;52.20
54006;DHT22;39919;38.160;-122.260;2023-08-30T01:19:53;29.00;52.70
54006;DHT22;39919;38.160;-122.260;2023-08-30T01:22:37;28.90;52.60
54006;DHT22;39919;38.160;-122.260;2023-08-30T01:25:24;28.90;52.10
54006;DHT22;39919;38.160;-122.260;2023-08-30T01:27:59;28.80;52.80
54006;DHT22;39919;38.160;-122.260;2023-08-30T01:30:29;28.70;52.50
54006;DHT22;39919;38.160;-122.260;2023-08-30T01:32:59;28.70;52.30
54006;DHT22;39919;38.160;-122.260;2023-08-30T01:35:30;28.60;52.60
54006;DHT22;39919;38.160;-122.260;2023-08-30T01:38:06;28.50;52.10
54006;DHT22;39919;38.160;-122.260;2023-08-30T01:40:43;28.40;51.90
54006;DHT22;39919;38.160;-122.260;2023-08-30T01:43:15;28.40;52.10
54006;DHT22;39919;38.160;-122.260;2023-08-30T01:45:45;28.30;51.80
54006;DHT22;39919;38.160;-122.260;2023-08-30T01:48:16;28.20;51.90
54006;DHT22;39919;38.160;-122.260;2023-08-30T01:50:46;28.20;52.40
54006;DHT22;39919;38.160;-122.260;2023-08-30T01:53:16;28.20;52.80
54006;DHT22;39919;38.160;-122.260;2023-08-30T01:55:45;28.10;53.00
54006;DHT22;39919;38.160;-122.260;2023-08-30T01:58:16;28.10;53.10
54006;DHT22;39919;38.160;-122.260;2023-08-30T02:00:45;28.00;53.60
54006;DHT22;39919;38.160;-122.260;2023-08-30T02:03:15;28.00;54.90
54006;DHT22;39919;38.160;-122.260;2023-08-30T02:05:52;27.90;54.90
54006;DHT22;39919;38.160;-122.260;2023-08-30T02:08:29;27.90;55.30
54006;DHT22;39919;38.160;-122.260;2023-08-30T02:11:04;27.80;55.50
54006;DHT22;39919;38.160;-122.260;2023-08-30T02:13:38;27.70;55.90
54006;DHT22;39919;38.160;-122.260;2023-08-30T02:16:09;27.70;55.70
54006;DHT22;39919;38.160;-122.260;2023-08-30T02:18:39;27.60;55.60
54006;DHT22;39919;38.160;-122.260;2023-08-30T02:21:09;27.50;55.60
54006;DHT22;39919;38.160;-122.260;2023-08-30T02:23:38;27.40;55.70
54006;DHT22;39919;38.160;-122.260;2023-08-30T02:26:08;27.30;55.30
54006;DHT22;39919;38.160;-122.260;2023-08-30T02:28:40;27.30;55.90
54006;DHT22;39919;38.160;-122.260;2023-08-30T02:31:09;27.20;56.50
54006;DHT22;39919;38.160;-122.260;2023-08-30T02:33:38;27.10;56.90
54006;DHT22;39919;38.160;-122.260;2023-08-30T02:36:07;27.00;56.70
54006;DHT22;39919;38.160;-122.260;2023-08-30T02:38:37;27.00;57.10
54006;DHT22;39919;38.160;-122.260;2023-08-30T02:41:09;26.90;56.80
54006;DHT22;39919;38.160;-122.260;2023-08-30T02:43:41;26.80;56.40
54006;DHT22;39919;38.160;-122.260;2023-08-30T02:46:10;26.70;56.20
54006;DHT22;39919;38.160;-122.260;2023-08-30T02:48:39;26.60;56.30
54006;DHT22;39919;38.160;-122.260;2023-08-30T02:51:08;26.50;56.20
54006;DHT22;39919;38.160;-122.260;2023-08-30T02:53:37;26.50;57.10
54006;DHT22;39919;38.160;-122.260;2023-08-30T02:56:06;26.40;57.00
54006;DHT22;39919;38.160;-122.260;2023-08-30T02:58:35;26.30;57.10
54006;DHT22;39919;38.160;-122.260;2023-08-30T03:01:06;26.20;57.80
54006;DHT22;39919;38.160;-122.260;2023-08-30T03:03:41;26.10;57.90
54006;DHT22;39919;38.160;-122.260;2023-08-30T03:06:13;26.10;58.40
54006;DHT22;39919;38.160;-122.260;2023-08-30T03:08:42;25.90;58.50
54006;DHT22;39919;38.160;-122.260;2023-08-30T03:11:12;25.80;58.40
54006;DHT22;39919;38.160;-122.260;2023-08-30T03:13:41;25.80;58.40
54006;DHT22;39919;38.160;-122.260;2023-08-30T03:16:16;25.60;58.50
54006;DHT22;39919;38.160;-122.260;2023-08-30T03:18:48;25.60;88.40
54006;DHT22;39919;38.160;-122.260;2023-08-30T03:21:17;25.50;87.80
54006;DHT22;39919;38.160;-122.260;2023-08-30T03:23:46;25.40;87.60
54006;DHT22;39919;38.160;-122.260;2023-08-30T03:26:16;25.40;88.10
54006;DHT22;39919;38.160;-122.260;2023-08-30T03:28:45;25.30;88.10
54006;DHT22;39919;38.160;-122.260;2023-08-30T03:31:17;25.20;88.40
54006;DHT22;39919;38.160;-122.260;2023-08-30T03:33:47;25.20;88.90
54006;DHT22;39919;38.160;-122.260;2023-08-30T03:36:17;25.10;88.30
54006;DHT22;39919;38.160;-122.260;2023-08-30T03:38:49;25.00;88.00
54006;DHT22;39919;38.160;-122.260;2023-08-30T03:41:18;24.90;87.90
54006;DHT22;39919;38.160;-122.260;2023-08-30T03:43:49;24.90;86.80
54006;DHT22;39919;38.160;-122.260;2023-08-30T03:46:20;24.80;67.70
54006;DHT22;39919;38.160;-122.260;2023-08-30T03:48:49;24.70;61.50
54006;DHT22;39919;38.160;-122.260;2023-08-30T03:51:18;24.60;60.80
54006;DHT22;39919;38.160;-122.260;2023-08-30T03:53:47;24.50;61.40
54006;DHT22;39919;38.160;-122.260;2023-08-30T03:56:17;24.50;61.40
54006;DHT22;39919;38.160;-122.260;2023-08-30T03:58:46;24.40;61.10
54006;DHT22;39919;38.160;-122.260;2023-08-30T04:01:18;24.40;60.60
54006;DHT22;39919;38.160;-122.260;2023-08-30T04:03:48;24.30;60.20
54006;DHT22;39919;38.160;-122.260;2023-08-30T04:06:18;24.20;59.90
54006;DHT22;39919;38.160;-122.260;2023-08-30T04:08:48;24.20;59.80
54006;DHT22;39919;38.160;-122.260;2023-08-30T04:11:17;23.90;64.70
54006;DHT22;39919;38.160;-122.260;2023-08-30T04:13:46;24.10;68.80
54006;DHT22;39919;38.160;-122.260;2023-08-30T04:16:15;24.00;60.50
54006;DHT22;39919;38.160;-122.260;2023-08-30T04:18:45;23.90;60.30
54006;DHT22;39919;38.160;-122.260;2023-08-30T04:21:15;23.80;60.70
54006;DHT22;39919;38.160;-122.260;2023-08-30T04:23:44;23.80;60.30
54006;DHT22;39919;38.160;-122.260;2023-08-30T04:26:14;23.80;75.10
54006;DHT22;39919;38.160;-122.260;2023-08-30T04:28:43;23.80;74.60
54006;DHT22;39919;38.160;-122.260;2023-08-30T04:31:12;23.70;72.40
54006;DHT22;39919;38.160;-122.260;2023-08-30T04:33:41;23.70;72.70
54006;DHT22;39919;38.160;-122.260;2023-08-30T04:36:10;23.60;73.40
54006;DHT22;39919;38.160;-122.260;2023-08-30T04:38:41;23.40;60.40
54006;DHT22;39919;38.160;-122.260;2023-08-30T04:41:10;23.50;60.90
54006;DHT22;39919;38.160;-122.260;2023-08-30T04:43:40;23.40;61.10
54006;DHT22;39919;38.160;-122.260;2023-08-30T04:46:10;23.40;61.20
54006;DHT22;39919;38.160;-122.260;2023-08-30T04:48:39;23.30;61.80
54006;DHT22;39919;38.160;-122.260;2023-08-30T04:51:08;23.30;62.30
54006;DHT22;39919;38.160;-122.260;2023-08-30T04:53:39;23.30;62.80
54006;DHT22;39919;38.160;-122.260;2023-08-30T04:56:13;23.20;62.20
54006;DHT22;39919;38.160;-122.260;2023-08-30T04:58:44;23.20;62.70
54006;DHT22;39919;38.160;-122.260;2023-08-30T05:01:14;23.20;62.80
54006;DHT22;39919;38.160;-122.260;2023-08-30T05:03:43;23.10;63.50
54006;DHT22;39919;38.160;-122.260;2023-08-30T05:06:12;23.10;63.40
54006;DHT22;39919;38.160;-122.260;2023-08-30T05:08:44;23.10;63.20
54006;DHT22;39919;38.160;-122.260;2023-08-30T05:11:13;23.00;64.40
54006;DHT22;39919;38.160;-122.260;2023-08-30T05:13:43;23.00;64.30
54006;DHT22;39919;38.160;-122.260;2023-08-30T05:16:12;22.90;64.70
54006;DHT22;39919;38.160;-122.260;2023-08-30T05:18:41;22.90;65.50
54006;DHT22;39919;38.160;-122.260;2023-08-30T05:21:13;22.90;65.60
54006;DHT22;39919;38.160;-122.260;2023-08-30T05:23:44;22.90;65.00
54006;DHT22;39919;38.160;-122.260;2023-08-30T05:26:14;22.80;65.00
54006;DHT22;39919;38.160;-122.260;2023-08-30T05:28:43;22.80;65.50
54006;DHT22;39919;38.160;-122.260;2023-08-30T05:31:12;22.70;65.70
54006;DHT22;39919;38.160;-122.260;2023-08-30T05:33:41;22.70;65.10
54006;DHT22;39919;38.160;-122.260;2023-08-30T05:36:13;22.60;65.60
54006;DHT22;39919;38.160;-122.260;2023-08-30T05:38:42;22.60;65.10
54006;DHT22;39919;38.160;-122.260;2023-08-30T05:41:15;22.60;65.30
54006;DHT22;39919;38.160;-122.260;2023-08-30T05:43:44;22.50;65.30
54006;DHT22;39919;38.160;-122.260;2023-08-30T05:46:13;22.50;65.20
54006;DHT22;39919;38.160;-122.260;2023-08-30T05:48:43;22.50;64.40
54006;DHT22;39919;38.160;-122.260;2023-08-30T05:51:12;22.40;64.00
54006;DHT22;39919;38.160;-122.260;2023-08-30T05:53:41;22.40;64.40
54006;DHT22;39919;38.160;-122.260;2023-08-30T05:56:11;22.30;64.40
54006;DHT22;39919;38.160;-122.260;2023-08-30T05:58:40;22.30;63.90
54006;DHT22;39919;38.160;-122.260;2023-08-30T06:01:10;22.30;64.00
54006;DHT22;39919;38.160;-122.260;2023-08-30T06:03:39;22.20;63.90
54006;DHT22;39919;38.160;-122.260;2023-08-30T06:06:08;22.20;64.90
54006;DHT22;39919;38.160;-122.260;2023-08-30T06:08:40;22.20;65.80
54006;DHT22;39919;38.160;-122.260;2023-08-30T06:11:09;22.10;66.70
54006;DHT22;39919;38.160;-122.260;2023-08-30T06:13:40;22.10;67.00
54006;DHT22;39919;38.160;-122.260;2023-08-30T06:16:09;22.10;67.40
54006;DHT22;39919;38.160;-122.260;2023-08-30T06:18:38;22.10;67.50
54006;DHT22;39919;38.160;-122.260;2023-08-30T06:21:08;22.00;68.40
54006;DHT22;39919;38.160;-122.260;2023-08-30T06:23:38;22.00;68.60
54006;DHT22;39919;38.160;-122.260;2023-08-30T06:26:07;22.00;69.20
54006;DHT22;39919;38.160;-122.260;2023-08-30T06:28:38;22.00;69.10
54006;DHT22;39919;38.160;-122.260;2023-08-30T06:31:07;21.90;68.00
54006;DHT22;39919;38.160;-122.260;2023-08-30T06:33:39;21.90;68.10
54006;DHT22;39919;38.160;-122.260;2023-08-30T06:36:08;21.80;69.00
54006;DHT22;39919;38.160;-122.260;2023-08-30T06:38:38;21.80;68.50
54006;DHT22;39919;38.160;-122.260;2023-08-30T06:41:07;21.80;68.60
54006;DHT22;39919;38.160;-122.260;2023-08-30T06:43:36;21.70;67.80
54006;DHT22;39919;38.160;-122.260;2023-08-30T06:46:07;21.70;68.10
54006;DHT22;39919;38.160;-122.260;2023-08-30T06:48:39;21.70;67.30
54006;DHT22;39919;38.160;-122.260;2023-08-30T06:51:08;21.60;67.60
54006;DHT22;39919;38.160;-122.260;2023-08-30T06:53:37;21.60;68.70
54006;DHT22;39919;38.160;-122.260;2023-08-30T06:56:06;21.50;67.90
54006;DHT22;39919;38.160;-122.260;2023-08-30T06:58:35;21.50;68.80
54006;DHT22;39919;38.160;-122.260;2023-08-30T07:01:06;21.40;70.00
54006;DHT22;39919;38.160;-122.260;2023-08-30T07:03:38;21.40;69.40
54006;DHT22;39919;38.160;-122.260;2023-08-30T07:06:07;21.30;69.20
54006;DHT22;39919;38.160;-122.260;2023-08-30T07:08:36;21.30;69.20
54006;DHT22;39919;38.160;-122.260;2023-08-30T07:11:05;21.30;68.40
54006;DHT22;39919;38.160;-122.260;2023-08-30T07:13:34;21.30;68.30
54006;DHT22;39919;38.160;-122.260;2023-08-30T07:16:04;21.20;69.50
54006;DHT22;39919;38.160;-122.260;2023-08-30T07:18:34;21.20;69.40
54006;DHT22;39919;38.160;-122.260;2023-08-30T07:21:04;21.10;70.40
54006;DHT22;39919;38.160;-122.260;2023-08-30T07:23:34;21.10;70.00
54006;DHT22;39919;38.160;-122.260;2023-08-30T07:26:05;21.00;70.00
54006;DHT22;39919;38.160;-122.260;2023-08-30T07:28:35;21.00;69.00
54006;DHT22;39919;38.160;-122.260;2023-08-30T07:31:04;20.90;68.50
54006;DHT22;39919;38.160;-122.260;2023-08-30T07:33:35;20.90;68.50
54006;DHT22;39919;38.160;-122.260;2023-08-30T07:36:07;20.90;69.20
54006;DHT22;39919;38.160;-122.260;2023-08-30T07:38:36;20.80;69.30
54006;DHT22;39919;38.160;-122.260;2023-08-30T07:41:06;20.80;69.50
54006;DHT22;39919;38.160;-122.260;2023-08-30T07:43:35;20.70;71.10
54006;DHT22;39919;38.160;-122.260;2023-08-30T07:46:04;20.80;74.00
54006;DHT22;39919;38.160;-122.260;2023-08-30T07:48:34;20.60;70.70
54006;DHT22;39919;38.160;-122.260;2023-08-30T07:51:04;20.60;70.00
54006;DHT22;39919;38.160;-122.260;2023-08-30T07:53:33;20.60;70.40
54006;DHT22;39919;38.160;-122.260;2023-08-30T07:56:02;20.50;69.80
54006;DHT22;39919;38.160;-122.260;2023-08-30T07:58:31;20.50;70.30
54006;DHT22;39919;38.160;-122.260;2023-08-30T08:01:00;20.40;70.90
54006;DHT22;39919;38.160;-122.260;2023-08-30T08:03:29;20.40;71.40
54006;DHT22;39919;38.160;-122.260;2023-08-30T08:06:01;20.30;70.70
54006;DHT22;39919;38.160;-122.260;2023-08-30T08:08:33;20.30;70.90
54006;DHT22;39919;38.160;-122.260;2023-08-30T08:11:02;20.30;70.60
54006;DHT22;39919;38.160;-122.260;2023-08-30T08:13:31;20.20;69.80
54006;DHT22;39919;38.160;-122.260;2023-08-30T08:16:00;20.10;70.30
54006;DHT22;39919;38.160;-122.260;2023-08-30T08:18:29;20.10;71.60
54006;DHT22;39919;38.160;-122.260;2023-08-30T08:21:00;20.00;71.20
54006;DHT22;39919;38.160;-122.260;2023-08-30T08:23:29;20.00;70.90
54006;DHT22;39919;38.160;-122.260;2023-08-30T08:25:59;20.00;70.50
54006;DHT22;39919;38.160;-122.260;2023-08-30T08:28:29;19.90;71.00
54006;DHT22;39919;38.160;-122.260;2023-08-30T08:30:58;19.80;70.70
54006;DHT22;39919;38.160;-122.260;2023-08-30T08:33:27;19.80;70.60
54006;DHT22;39919;38.160;-122.260;2023-08-30T08:35:56;18.80;90.30
54006;DHT22;39919;38.160;-122.260;2023-08-30T08:38:27;19.80;70.30
54006;DHT22;39919;38.160;-122.260;2023-08-30T08:41:02;19.70;70.50
54006;DHT22;39919;38.160;-122.260;2023-08-30T08:43:32;19.70;70.50
54006;DHT22;39919;38.160;-122.260;2023-08-30T08:46:04;19.60;70.20
54006;DHT22;39919;38.160;-122.260;2023-08-30T08:48:39;19.60;70.60
54006;DHT22;39919;38.160;-122.260;2023-08-30T08:51:08;19.50;71.50
54006;DHT22;39919;38.160;-122.260;2023-08-30T08:53:40;19.50;70.90
54006;DHT22;39919;38.160;-122.260;2023-08-30T08:56:10;19.50;70.50
54006;DHT22;39919;38.160;-122.260;2023-08-30T08:58:39;19.50;71.40
54006;DHT22;39919;38.160;-122.260;2023-08-30T09:01:13;19.40;72.40
54006;DHT22;39919;38.160;-122.260;2023-08-30T09:03:42;19.40;72.20
54006;DHT22;39919;38.160;-122.260;2023-08-30T09:06:11;19.30;72.00
54006;DHT22;39919;38.160;-122.260;2023-08-30T09:08:42;19.30;71.60
54006;DHT22;39919;38.160;-122.260;2023-08-30T09:11:11;19.30;72.70
54006;DHT22;39919;38.160;-122.260;2023-08-30T09:13:41;19.30;73.50
54006;DHT22;39919;38.160;-122.260;2023-08-30T09:16:15;19.20;73.50
54006;DHT22;39919;38.160;-122.260;2023-08-30T09:18:44;19.20;72.60
54006;DHT22;39919;38.160;-122.260;2023-08-30T09:21:13;19.10;71.90
54006;DHT22;39919;38.160;-122.260;2023-08-30T09:23:44;19.10;72.10
54006;DHT22;39919;38.160;-122.260;2023-08-30T09:26:13;19.10;72.20
54006;DHT22;39919;38.160;-122.260;2023-08-30T09:28:45;19.00;72.30
54006;DHT22;39919;38.160;-122.260;2023-08-30T09:31:18;19.00;72.10
54006;DHT22;39919;38.160;-122.260;2023-08-30T09:33:47;18.90;72.20
54006;DHT22;39919;38.160;-122.260;2023-08-30T09:36:17;18.90;72.40
54006;DHT22;39919;38.160;-122.260;2023-08-30T09:38:50;18.90;72.80
54006;DHT22;39919;38.160;-122.260;2023-08-30T09:41:20;18.90;73.10
54006;DHT22;39919;38.160;-122.260;2023-08-30T09:43:49;18.90;73.50
54006;DHT22;39919;38.160;-122.260;2023-08-30T09:46:18;18.90;73.30
54006;DHT22;39919;38.160;-122.260;2023-08-30T09:48:47;18.80;73.10
54006;DHT22;39919;38.160;-122.260;2023-08-30T09:51:19;18.80;73.20
54006;DHT22;39919;38.160;-122.260;2023-08-30T09:53:53;18.70;72.40
54006;DHT22;39919;38.160;-122.260;2023-08-30T09:56:23;18.70;73.30
54006;DHT22;39919;38.160;-122.260;2023-08-30T09:58:55;18.70;73.20
54006;DHT22;39919;38.160;-122.260;2023-08-30T10:01:27;18.70;73.10
54006;DHT22;39919;38.160;-122.260;2023-08-30T10:03:57;18.60;72.80
54006;DHT22;39919;38.160;-122.260;2023-08-30T10:06:26;18.60;72.30
54006;DHT22;39919;38.160;-122.260;2023-08-30T10:08:59;18.50;72.40
54006;DHT22;39919;38.160;-122.260;2023-08-30T10:11:31;18.50;72.90
54006;DHT22;39919;38.160;-122.260;2023-08-30T10:14:02;18.50;72.80
54006;DHT22;39919;38.160;-122.260;2023-08-30T10:16:37;18.50;73.00
54006;DHT22;39919;38.160;-122.260;2023-08-30T10:19:16;18.40;73.40
54006;DHT22;39919;38.160;-122.260;2023-08-30T10:21:48;18.40;73.00
54006;DHT22;39919;38.160;-122.260;2023-08-30T10:24:22;18.40;72.60
54006;DHT22;39919;38.160;-122.260;2023-08-30T10:26:53;18.40;72.10
54006;DHT22;39919;38.160;-122.260;2023-08-30T10:29:23;18.30;72.70
54006;DHT22;39919;38.160;-122.260;2023-08-30T10:31:53;18.30;73.00
54006;DHT22;39919;38.160;-122.260;2023-08-30T10:34:22;18.30;73.00
54006;DHT22;39919;38.160;-122.260;2023-08-30T10:36:59;18.30;73.60
54006;DHT22;39919;38.160;-122.260;2023-08-30T10:39:36;18.20;73.40
54006;DHT22;39919;38.160;-122.260;2023-08-30T10:42:09;18.20;72.90
54006;DHT22;39919;38.160;-122.260;2023-08-30T10:44:48;18.20;72.60
54006;DHT22;39919;38.160;-122.260;2023-08-30T10:47:22;18.10;73.70
54006;DHT22;39919;38.160;-122.260;2023-08-30T10:49:54;18.10;73.60
54006;DHT22;39919;38.160;-122.260;2023-08-30T10:52:27;18.10;73.40
54006;DHT22;39919;38.160;-122.260;2023-08-30T10:55:08;18.00;74.20
54006;DHT22;39919;38.160;-122.260;2023-08-30T10:57:37;18.00;74.30
54006;DHT22;39919;38.160;-122.260;2023-08-30T11:00:22;18.00;74.40
54006;DHT22;39919;38.160;-122.260;2023-08-30T11:02:54;18.00;73.90
54006;DHT22;39919;38.160;-122.260;2023-08-30T11:05:25;17.90;74.20
54006;DHT22;39919;38.160;-122.260;2023-08-30T11:07:54;17.90;74.30
54006;DHT22;39919;38.160;-122.260;2023-08-30T11:10:25;17.90;75.20
54006;DHT22;39919;38.160;-122.260;2023-08-30T11:12:55;17.80;74.70
54006;DHT22;39919;38.160;-122.260;2023-08-30T11:15:26;17.80;74.60
54006;DHT22;39919;38.160;-122.260;2023-08-30T11:18:03;17.70;74.20
54006;DHT22;39919;38.160;-122.260;2023-08-30T11:20:32;17.70;75.20
54006;DHT22;39919;38.160;-122.260;2023-08-30T11:23:03;17.70;74.70
54006;DHT22;39919;38.160;-122.260;2023-08-30T11:25:34;17.70;74.20
54006;DHT22;39919;38.160;-122.260;2023-08-30T11:28:03;17.70;74.00
54006;DHT22;39919;38.160;-122.260;2023-08-30T11:30:34;17.60;73.90
54006;DHT22;39919;38.160;-122.260;2023-08-30T11:33:08;17.60;74.20
54006;DHT22;39919;38.160;-122.260;2023-08-30T11:35:37;17.60;74.90
54006;DHT22;39919;38.160;-122.260;2023-08-30T11:38:07;17.60;75.00
54006;DHT22;39919;38.160;-122.260;2023-08-30T11:40:38;17.50;75.50
54006;DHT22;39919;38.160;-122.260;2023-08-30T11:43:08;17.50;75.10
54006;DHT22;39919;38.160;-122.260;2023-08-30T11:45:38;17.50;75.30
54006;DHT22;39919;38.160;-122.260;2023-08-30T11:48:09;17.50;75.10
54006;DHT22;39919;38.160;-122.260;2023-08-30T11:50:39;17.50;75.20
54006;DHT22;39919;38.160;-122.260;2023-08-30T11:53:08;17.50;74.70
54006;DHT22;39919;38.160;-122.260;2023-08-30T11:55:41;17.40;74.70
54006;DHT22;39919;38.160;-122.260;2023-08-30T11:58:15;17.40;76.00
54006;DHT22;39919;38.160;-122.260;2023-08-30T12:00:49;17.40;75.40
54006;DHT22;39919;38.160;-122.260;2023-08-30T12:03:18;17.40;75.40
54006;DHT22;39919;38.160;-122.260;2023-08-30T12:05:47;17.40;76.10
54006;DHT22;39919;38.160;-122.260;2023-08-30T12:08:20;17.30;75.70
54006;DHT22;39919;38.160;-122.260;2023-08-30T12:10:51;17.30;77.20
54006;DHT22;39919;38.160;-122.260;2023-08-30T12:13:22;17.30;77.00
54006;DHT22;39919;38.160;-122.260;2023-08-30T12:15:52;17.30;77.20
54006;DHT22;39919;38.160;-122.260;2023-08-30T12:18:24;17.30;77.10
54006;DHT22;39919;38.160;-122.260;2023-08-30T12:20:55;17.30;76.50
54006;DHT22;39919;38.160;-122.260;2023-08-30T12:23:25;17.30;76.10
54006;DHT22;39919;38.160;-122.260;2023-08-30T12:26:00;17.20;76.20
54006;DHT22;39919;38.160;-122.260;2023-08-30T12:28:31;17.20;76.00
54006;DHT22;39919;38.160;-122.260;2023-08-30T12:31:00;17.20;77.10
54006;DHT22;39919;38.160;-122.260;2023-08-30T12:33:31;17.20;77.00
54006;DHT22;39919;38.160;-122.260;2023-08-30T12:36:00;17.10;76.20
54006;DHT22;39919;38.160;-122.260;2023-08-30T12:38:30;17.10;75.70
54006;DHT22;39919;38.160;-122.260;2023-08-30T12:41:02;17.10;77.20
54006;DHT22;39919;38.160;-122.260;2023-08-30T12:43:31;17.10;76.60
54006;DHT22;39919;38.160;-122.260;2023-08-30T12:46:00;17.10;77.10
54006;DHT22;39919;38.160;-122.260;2023-08-30T12:48:31;17.10;76.70
54006;DHT22;39919;38.160;-122.260;2023-08-30T12:51:02;17.10;76.20
54006;DHT22;39919;38.160;-122.260;2023-08-30T12:53:31;17.00;76.00
54006;DHT22;39919;38.160;-122.260;2023-08-30T12:56:02;17.00;77.00
54006;DHT22;39919;38.160;-122.260;2023-08-30T12:58:31;17.00;77.00
54006;DHT22;39919;38.160;-122.260;2023-08-30T13:01:00;17.00;76.60
54006;DHT22;39919;38.160;-122.260;2023-08-30T13:03:30;16.90;77.40
54006;DHT22;39919;38.160;-122.260;2023-08-30T13:05:59;16.90;77.80
54006;DHT22;39919;38.160;-122.260;2023-08-30T13:08:30;16.90;78.00
54006;DHT22;39919;38.160;-122.260;2023-08-30T13:11:02;16.90;77.90
54006;DHT22;39919;38.160;-122.260;2023-08-30T13:13:31;16.90;78.20
54006;DHT22;39919;38.160;-122.260;2023-08-30T13:16:00;16.90;78.90
54006;DHT22;39919;38.160;-122.260;2023-08-30T13:18:30;16.80;78.20
54006;DHT22;39919;38.160;-122.260;2023-08-30T13:20:59;16.80;78.40
54006;DHT22;39919;38.160;-122.260;2023-08-30T13:23:28;16.80;78.60
54006;DHT22;39919;38.160;-122.260;2023-08-30T13:25:57;16.80;78.30
54006;DHT22;39919;38.160;-122.260;2023-08-30T13:28:28;16.80;77.60
54006;DHT22;39919;38.160;-122.260;2023-08-30T13:30:57;16.80;77.40
54006;DHT22;39919;38.160;-122.260;2023-08-30T13:33:26;16.70;76.80
54006;DHT22;39919;38.160;-122.260;2023-08-30T13:35:55;16.70;77.00
54006;DHT22;39919;38.160;-122.260;2023-08-30T13:38:25;16.70;78.30
54006;DHT22;39919;38.160;-122.260;2023-08-30T13:40:59;16.70;77.90
54006;DHT22;39919;38.160;-122.260;2023-08-30T13:43:33;16.70;78.70
54006;DHT22;39919;38.160;-122.260;2023-08-30T13:46:02;16.60;79.40
54006;DHT22;39919;38.160;-122.260;2023-08-30T13:48:31;16.70;79.30
54006;DHT22;39919;38.160;-122.260;2023-08-30T13:51:00;16.60;79.20
54006;DHT22;39919;38.160;-122.260;2023-08-30T13:53:29;16.60;79.90
54006;DHT22;39919;38.160;-122.260;2023-08-30T13:55:58;16.60;80.10
54006;DHT22;39919;38.160;-122.260;2023-08-30T13:58:29;16.60;79.60
54006;DHT22;39919;38.160;-122.260;2023-08-30T14:00:58;16.60;79.30
54006;DHT22;39919;38.160;-122.260;2023-08-30T14:03:28;16.60;78.60
54006;DHT22;39919;38.160;-122.260;2023-08-30T14:05:57;16.60;79.30
54006;DHT22;39919;38.160;-122.260;2023-08-30T14:08:26;16.60;79.20
54006;DHT22;39919;38.160;-122.260;2023-08-30T14:10:55;16.60;79.00
54006;DHT22;39919;38.160;-122.260;2023-08-30T14:13:25;16.70;79.50
54006;DHT22;39919;38.160;-122.260;2023-08-30T14:15:56;16.80;79.00
54006;DHT22;39919;38.160;-122.260;2023-08-30T14:18:25;16.70;78.40
54006;DHT22;39919;38.160;-122.260;2023-08-30T14:20:56;16.80;78.20
54006;DHT22;39919;38.160;-122.260;2023-08-30T14:23:26;16.90;78.90
54006;DHT22;39919;38.160;-122.260;2023-08-30T14:25:58;16.90;78.90
54006;DHT22;39919;38.160;-122.260;2023-08-30T14:28:28;17.00;79.20
54006;DHT22;39919;38.160;-122.260;2023-08-30T14:30:59;17.00;79.30
54006;DHT22;39919;38.160;-122.260;2023-08-30T14:33:28;17.10;79.00
54006;DHT22;39919;38.160;-122.260;2023-08-30T14:35:57;17.20;79.50
54006;DHT22;39919;38.160;-122.260;2023-08-30T14:38:26;17.30;79.00
54006;DHT22;39919;38.160;-122.260;2023-08-30T14:40:58;17.30;78.70
54006;DHT22;39919;38.160;-122.260;2023-08-30T14:43:27;17.40;78.10
54006;DHT22;39919;38.160;-122.260;2023-08-30T14:46:02;17.50;78.40
54006;DHT22;39919;38.160;-122.260;2023-08-30T14:48:31;17.60;77.60
54006;DHT22;39919;38.160;-122.260;2023-08-30T14:51:02;17.70;77.50
54006;DHT22;39919;38.160;-122.260;2023-08-30T14:53:31;17.80;77.00
54006;DHT22;39919;38.160;-122.260;2023-08-30T14:56:03;18.00;76.80
54006;DHT22;39919;38.160;-122.260;2023-08-30T14:58:34;18.10;76.50
54006;DHT22;39919;38.160;-122.260;2023-08-30T15:01:06;18.20;76.70
54006;DHT22;39919;38.160;-122.260;2023-08-30T15:03:35;18.40;76.40
54006;DHT22;39919;38.160;-122.260;2023-08-30T15:06:04;18.50;76.20
54006;DHT22;39919;38.160;-122.260;2023-08-30T15:08:33;18.70;76.50